Itaska, New York
Current Conditions -  °F | °C
As of 8:53 AM on Saturday 22 Nov 2014 (Local Time) from KBGM Reporting Station
Clear Clear  
Wind Chill: 13°   Ceiling: Unl
Heat Index: 22°   Visibility: 10mi
Dew Point: 10°   Wind: 7mph
Humidity: 60%   Direction: 190°S
Pressure: 30.27"   Gusts: NA
Location:  42.3636°N, 75.9252°W
Report Text: KBGM 221353Z 19006KT 10SM CLR M06/M12 A3027 RMK AO2 SLP275 T10561122
Loading
Personal Weather Stations






























Interactive Weather Map New forecast layout! Learn more

10-Day Weather Forecast

Advertisements
Track Severe Weather on mobile